createdAt,value
2018-07-29T00:00:38.679Z,100076.78
2018-07-29T00:03:05.688Z,100076.11
2018-07-29T00:05:32.744Z,100074.64
2018-07-29T00:07:59.720Z,100082.21
2018-07-29T00:10:28.891Z,100086.13
2018-07-29T00:12:56.509Z,100082.91
2018-07-29T00:15:23.497Z,100081.73
2018-07-29T00:17:52.524Z,100082.85
2018-07-29T00:20:20.640Z,100076.89
2018-07-29T00:22:50.667Z,100080.50
2018-07-29T00:25:17.720Z,100088.27
2018-07-29T00:27:44.823Z,100090.25
2018-07-29T00:30:12.494Z,100085.59
2018-07-29T00:32:41.628Z,100090.20
2018-07-29T00:35:10.848Z,100086.91
2018-07-29T00:37:40.887Z,100098.52
2018-07-29T00:40:07.964Z,100104.76
2018-07-29T00:42:35.033Z,100100.88
2018-07-29T00:45:02.120Z,100107.33
2018-07-29T00:47:29.980Z,100104.69
2018-07-29T00:49:57.070Z,100110.42
2018-07-29T00:52:24.153Z,100109.38
2018-07-29T00:54:52.340Z,100108.15
2018-07-29T00:57:19.377Z,100111.25
2018-07-29T00:59:49.997Z,100110.02
2018-07-29T01:02:19.304Z,100103.08
2018-07-29T01:04:48.012Z,100107.09
2018-07-29T01:07:17.051Z,100107.20
2018-07-29T01:09:44.076Z,100107.56
2018-07-29T01:12:11.201Z,100114.27
2018-07-29T01:14:38.256Z,100119.10
2018-07-29T01:17:08.096Z,100122.98
2018-07-29T01:19:37.108Z,100125.47
2018-07-29T01:22:04.081Z,100123.86
2018-07-29T01:24:31.172Z,100118.45
2018-07-29T01:26:58.196Z,100112.02
2018-07-29T01:29:25.188Z,100113.09
2018-07-29T01:31:52.275Z,100113.84
2018-07-29T01:34:20.366Z,100108.31
2018-07-29T01:36:47.443Z,100100.92
2018-07-29T01:39:16.071Z,100100.32
2018-07-29T01:41:43.072Z,100101.80
2018-07-29T01:44:11.076Z,100102.55
2018-07-29T01:46:38.072Z,100099.14
2018-07-29T01:49:07.074Z,100110.05
2018-07-29T01:51:35.078Z,100100.52
2018-07-29T01:54:02.167Z,100108.05
2018-07-29T01:56:30.080Z,100111.95
2018-07-29T01:58:57.131Z,100105.91
2018-07-29T02:01:26.275Z,100107.53
2018-07-29T02:03:53.313Z,100113.38
2018-07-29T02:06:22.174Z,100109.22
2018-07-29T02:08:49.217Z,100113.02
2018-07-29T02:11:16.308Z,100110.44
2018-07-29T02:13:45.070Z,100112.52
2018-07-29T02:16:12.080Z,100108.37
2018-07-29T02:18:43.157Z,100104.94
2018-07-29T02:21:12.171Z,100109.70
2018-07-29T02:23:39.212Z,100102.08
2018-07-29T02:26:06.290Z,100095.66
2018-07-29T02:28:34.074Z,100099.47
2018-07-29T02:31:02.094Z,100096.64
2018-07-29T02:33:30.833Z,100101.95
2018-07-29T02:35:58.641Z,100094.93
2018-07-29T02:38:28.664Z,100097.94
2018-07-29T02:40:56.787Z,100095.65
2018-07-29T02:43:23.877Z,100093.09
2018-07-29T02:45:50.895Z,100099.47
2018-07-29T02:48:17.969Z,100090.39
2018-07-29T02:50:45.676Z,100096.38
2018-07-29T02:53:14.660Z,100091.27
2018-07-29T02:55:42.732Z,100099.56
2018-07-29T02:58:09.814Z,100103.12
2018-07-29T03:00:36.908Z,100107.28
2018-07-29T03:03:05.000Z,100103.17
2018-07-29T03:05:35.071Z,100102.41
2018-07-29T03:08:02.153Z,100102.16
2018-07-29T03:10:30.132Z,100103.92
2018-07-29T03:12:57.172Z,100112.02
2018-07-29T03:15:24.338Z,100121.39
2018-07-29T03:17:53.417Z,100120.12
2018-07-29T03:20:20.354Z,100124.96
2018-07-29T03:22:47.553Z,100121.22
2018-07-29T03:25:16.127Z,100125.52
2018-07-29T03:27:49.447Z,100122.77
2018-07-29T03:30:19.704Z,100121.80
2018-07-29T03:32:47.715Z,100124.67
2018-07-29T03:35:18.655Z,100121.56
2018-07-29T03:37:47.891Z,100125.95
2018-07-29T03:40:17.909Z,100125.69
2018-07-29T03:42:45.002Z,100124.90
2018-07-29T03:45:12.083Z,100125.78
2018-07-29T03:47:39.151Z,100122.20
2018-07-29T03:50:06.254Z,100128.00
2018-07-29T03:52:33.235Z,100124.71
2018-07-29T03:55:01.170Z,100123.77
2018-07-29T03:57:28.264Z,100129.84
2018-07-29T03:59:55.312Z,100131.26
2018-07-29T04:02:22.432Z,100125.53
2018-07-29T04:04:49.516Z,100141.98
2018-07-29T04:07:17.167Z,100134.05
2018-07-29T04:09:44.281Z,100141.56
2018-07-29T04:12:11.373Z,100145.66
2018-07-29T04:14:38.288Z,100144.79
2018-07-29T04:17:05.338Z,100142.88
2018-07-29T04:19:32.460Z,100143.14
2018-07-29T04:21:59.507Z,100137.30
2018-07-29T04:24:26.537Z,100143.81
2018-07-29T04:26:54.152Z,100137.03
2018-07-29T04:29:21.191Z,100141.09
2018-07-29T04:31:48.422Z,100142.84
2018-07-29T04:34:20.519Z,100143.86
2018-07-29T04:36:47.552Z,100144.25
2018-07-29T04:39:14.641Z,100139.41
2018-07-29T04:41:41.699Z,100142.13
2018-07-29T04:44:09.700Z,100143.64
2018-07-29T04:46:38.888Z,100140.62
2018-07-29T04:49:06.745Z,100141.05
2018-07-29T04:51:34.710Z,100139.61
2018-07-29T04:54:03.714Z,100138.05
2018-07-29T04:56:31.831Z,100146.66
2018-07-29T04:58:59.768Z,100138.63
2018-07-29T05:01:27.724Z,100143.70
2018-07-29T05:03:55.815Z,100142.70
2018-07-29T05:06:22.870Z,100140.45
2018-07-29T05:08:49.971Z,100139.52
2018-07-29T05:11:17.504Z,100141.47
2018-07-29T05:13:44.523Z,100138.90
2018-07-29T05:16:11.616Z,100143.95
2018-07-29T05:18:39.206Z,100134.14
2018-07-29T05:21:07.264Z,100138.69
2018-07-29T05:23:34.492Z,100138.55
2018-07-29T05:26:03.293Z,100144.11
2018-07-29T05:28:30.205Z,100147.04
2018-07-29T05:30:58.271Z,100146.30
2018-07-29T05:33:25.344Z,100140.12
2018-07-29T05:35:52.555Z,100137.45
2018-07-29T05:38:21.176Z,100146.48
2018-07-29T05:40:50.348Z,100135.24
2018-07-29T05:43:21.490Z,100136.44
2018-07-29T05:45:48.548Z,100140.56
2018-07-29T05:48:15.646Z,100143.58
2018-07-29T05:50:42.743Z,100143.98
2018-07-29T05:53:09.786Z,100142.85
2018-07-29T05:55:38.816Z,100146.55
2018-07-29T05:58:07.914Z,100147.73
2018-07-29T06:00:34.975Z,100160.42
2018-07-29T06:03:03.891Z,100156.15
2018-07-29T06:05:31.005Z,100146.30
2018-07-29T06:07:58.033Z,100148.91
2018-07-29T06:10:25.033Z,100146.03
2018-07-29T06:12:52.163Z,100145.44
2018-07-29T06:15:19.276Z,100150.38
2018-07-29T06:17:46.396Z,100148.27
2018-07-29T06:20:14.081Z,100150.69
2018-07-29T06:22:41.112Z,100152.51
2018-07-29T06:25:09.299Z,100159.27
2018-07-29T06:27:41.220Z,100157.73
2018-07-29T06:30:09.328Z,100153.94
2018-07-29T06:32:37.384Z,100163.13
2018-07-29T06:35:06.328Z,100163.55
2018-07-29T06:37:33.374Z,100161.30
2018-07-29T06:40:00.432Z,100157.49
2018-07-29T06:42:27.517Z,100157.21
2018-07-29T06:44:55.305Z,100160.55
2018-07-29T06:47:22.491Z,100158.53
2018-07-29T06:49:50.296Z,100156.23
2018-07-29T06:52:17.322Z,100160.27
2018-07-29T06:54:44.412Z,100159.81
2018-07-29T06:57:11.728Z,100157.61
2018-07-29T06:59:39.820Z,100152.53
2018-07-29T07:02:07.856Z,100158.52
2018-07-29T07:04:35.985Z,100154.72
2018-07-29T07:07:03.556Z,100157.81
2018-07-29T07:09:30.656Z,100159.31
2018-07-29T07:11:57.755Z,100158.67
2018-07-29T07:14:25.017Z,100157.06
2018-07-29T07:16:52.143Z,100158.16
2018-07-29T07:19:19.240Z,100157.77
2018-07-29T07:21:46.344Z,100159.48
2018-07-29T07:24:13.412Z,100150.45
2018-07-29T07:26:41.327Z,100161.28
2018-07-29T07:29:09.319Z,100149.91
2018-07-29T07:31:36.353Z,100158.67
2018-07-29T07:34:03.422Z,100159.48
2018-07-29T07:36:31.322Z,100152.53
2018-07-29T07:38:58.431Z,100161.33
2018-07-29T07:41:25.509Z,100167.30
2018-07-29T07:43:52.524Z,100154.44
2018-07-29T07:46:19.613Z,100149.31
2018-07-29T07:48:46.677Z,100149.48
2018-07-29T07:51:13.808Z,100150.88
2018-07-29T07:53:42.746Z,100153.65
2018-07-29T07:56:09.929Z,100153.62
2018-07-29T07:58:44.256Z,100148.82
2018-07-29T08:01:11.450Z,100148.55
2018-07-29T08:03:38.484Z,100138.33
2018-07-29T08:06:07.599Z,100139.69
2018-07-29T08:08:34.664Z,100136.88
2018-07-29T08:11:01.734Z,100134.39
2018-07-29T08:13:28.744Z,100144.72
2018-07-29T08:15:57.139Z,100129.64
2018-07-29T08:18:24.183Z,100116.30
2018-07-29T08:20:51.263Z,100120.48
2018-07-29T08:23:18.321Z,100118.75
2018-07-29T08:25:45.392Z,100119.05
2018-07-29T08:28:12.532Z,100114.45
2018-07-29T08:30:39.788Z,100106.16
2018-07-29T08:33:08.086Z,100114.70
2018-07-29T08:35:35.161Z,100113.80
2018-07-29T08:38:02.316Z,100126.58
2018-07-29T08:40:29.384Z,100126.08
2018-07-29T08:42:56.437Z,100135.51
2018-07-29T08:45:23.579Z,100123.91
2018-07-29T08:47:52.350Z,100121.52
2018-07-29T08:50:21.342Z,100120.38
2018-07-29T08:52:48.461Z,100116.50
2018-07-29T08:55:15.569Z,100119.73
2018-07-29T08:57:42.593Z,100120.86
2018-07-29T09:00:09.697Z,100122.06
2018-07-29T09:02:36.782Z,100118.86
2018-07-29T09:05:03.840Z,100115.34
2018-07-29T09:07:30.813Z,100110.41
2018-07-29T09:09:57.887Z,100105.49
2018-07-29T09:12:24.881Z,100115.63
2018-07-29T09:14:51.885Z,100117.95
2018-07-29T09:17:18.895Z,100116.16
2018-07-29T09:19:45.897Z,100113.62
2018-07-29T09:22:12.997Z,100104.24
2018-07-29T09:24:40.049Z,100109.28
2018-07-29T09:27:07.200Z,100101.23
2018-07-29T09:29:34.319Z,100111.09
2018-07-29T09:32:03.055Z,100098.81
2018-07-29T09:34:30.195Z,100108.20
2018-07-29T09:36:57.376Z,100104.77
2018-07-29T09:39:24.481Z,100103.75
2018-07-29T09:41:51.673Z,100103.08
2018-07-29T09:44:18.669Z,100105.28
2018-07-29T09:46:46.383Z,100108.41
2018-07-29T09:49:13.558Z,100105.07
2018-07-29T09:51:40.564Z,100099.92
2018-07-29T09:54:07.624Z,100099.97
2018-07-29T09:56:35.415Z,100101.96
2018-07-29T09:59:02.482Z,100095.88
2018-07-29T10:01:29.583Z,100095.02
2018-07-29T10:03:56.854Z,100084.64
2018-07-29T10:06:24.226Z,100085.91
2018-07-29T10:08:51.660Z,100094.91
2018-07-29T10:11:19.589Z,100093.78
2018-07-29T10:13:47.024Z,100086.27
2018-07-29T10:16:14.576Z,100083.94
2018-07-29T10:18:45.978Z,100082.50
2018-07-29T10:21:13.408Z,100080.87
2018-07-29T10:23:40.911Z,100080.64
2018-07-29T10:26:10.412Z,100070.73
2018-07-29T10:28:37.642Z,100077.70
2018-07-29T10:31:05.464Z,100079.91
2018-07-29T10:33:32.715Z,100079.35
2018-07-29T10:36:00.976Z,100082.70
2018-07-29T10:38:28.363Z,100076.10
2018-07-29T10:40:55.677Z,100083.16
2018-07-29T10:43:23.119Z,100069.98
2018-07-29T10:45:50.566Z,100069.70
2018-07-29T10:48:17.842Z,100065.92
2018-07-29T10:50:47.204Z,100060.42
2018-07-29T10:53:17.583Z,100068.52
2018-07-29T10:55:46.376Z,100061.52
2018-07-29T10:58:13.539Z,100063.84
2018-07-29T11:00:40.668Z,100072.20
2018-07-29T11:03:09.222Z,100059.05
2018-07-29T11:05:36.576Z,100054.91
2018-07-29T11:08:04.670Z,100055.67
2018-07-29T11:10:33.840Z,100056.53
2018-07-29T11:13:01.580Z,100058.09
2018-07-29T11:15:28.635Z,100048.16
2018-07-29T11:18:01.877Z,100047.55
2018-07-29T11:20:32.508Z,100049.69
2018-07-29T11:23:00.405Z,100045.16
2018-07-29T11:25:27.589Z,100043.78
2018-07-29T11:27:54.738Z,100046.83
2018-07-29T11:30:21.973Z,100049.89
2018-07-29T11:32:49.116Z,100039.45
2018-07-29T11:35:16.564Z,100040.05
2018-07-29T11:37:44.493Z,100035.08
2018-07-29T11:40:11.516Z,100025.67
2018-07-29T11:42:38.549Z,100027.35
2018-07-29T11:45:05.812Z,100032.41
2018-07-29T11:47:32.839Z,100022.89
2018-07-29T11:49:59.929Z,100026.16
2018-07-29T11:52:26.949Z,100021.14
2018-07-29T11:54:54.217Z,100025.78
2018-07-29T11:57:21.282Z,100021.08
2018-07-29T11:59:48.240Z,100014.70
2018-07-29T12:02:15.308Z,100008.25
2018-07-29T12:04:42.323Z,100020.44
2018-07-29T12:07:09.345Z,100001.16
2018-07-29T12:09:36.350Z,100002.34
2018-07-29T12:12:03.397Z,100001.18
2018-07-29T12:14:30.488Z,100000.75
2018-07-29T12:16:58.517Z,99995.71
2018-07-29T12:19:25.533Z,99991.13
2018-07-29T12:21:52.580Z,99994.69
2018-07-29T12:24:19.569Z,99984.30
2018-07-29T12:26:46.592Z,99979.77
2018-07-29T12:29:13.630Z,99981.78
2018-07-29T12:31:40.672Z,99982.58
2018-07-29T12:34:07.696Z,99968.34
2018-07-29T12:36:34.724Z,99971.33
2018-07-29T12:39:01.741Z,99965.32
2018-07-29T12:41:29.097Z,99964.91
2018-07-29T12:43:56.128Z,99974.46
2018-07-29T12:46:23.138Z,99967.59
2018-07-29T12:48:50.180Z,99966.11
2018-07-29T12:51:17.365Z,99970.48
2018-07-29T12:53:44.913Z,99957.44
2018-07-29T12:56:11.941Z,99958.13
2018-07-29T12:58:39.110Z,99952.10
2018-07-29T13:01:06.168Z,99959.66
2018-07-29T13:03:33.224Z,99958.23
2018-07-29T13:06:00.304Z,99958.29
2018-07-29T13:08:27.247Z,99955.27
2018-07-29T13:10:54.256Z,99956.09
2018-07-29T13:13:21.328Z,99953.20
2018-07-29T13:15:48.424Z,99949.97
2018-07-29T13:18:15.508Z,99946.61
2018-07-29T13:20:42.606Z,99940.03
2018-07-29T13:23:09.616Z,99942.90
2018-07-29T13:25:37.620Z,99937.41
2018-07-29T13:28:04.716Z,99928.56
2018-07-29T13:30:31.726Z,99933.45
2018-07-29T13:32:58.797Z,99926.80
2018-07-29T13:35:25.996Z,99921.70
2018-07-29T13:37:53.017Z,99914.81
2018-07-29T13:40:20.129Z,99928.50
2018-07-29T13:42:47.173Z,99920.98
2018-07-29T13:45:14.192Z,99914.24
2018-07-29T13:47:41.225Z,99909.62
2018-07-29T13:50:09.392Z,99909.05
2018-07-29T13:52:36.427Z,99914.64
2018-07-29T13:55:04.013Z,99907.44
2018-07-29T13:57:31.093Z,99906.02
2018-07-29T13:59:59.014Z,99902.48
2018-07-29T14:02:26.126Z,99903.13
2018-07-29T14:04:56.453Z,99899.38
2018-07-29T14:07:23.608Z,99900.16
2018-07-29T14:09:50.686Z,99902.68
2018-07-29T14:12:17.776Z,99899.97
2018-07-29T14:14:44.890Z,99900.31
2018-07-29T14:17:11.979Z,99905.70
2018-07-29T14:19:39.100Z,99897.26
2018-07-29T14:22:06.112Z,99897.02
2018-07-29T14:24:33.151Z,99897.62
2018-07-29T14:27:00.395Z,99890.81
2018-07-29T14:29:27.517Z,99893.81
2018-07-29T14:31:54.543Z,99892.41
2018-07-29T14:34:21.607Z,99884.04
2018-07-29T14:36:48.673Z,99889.14
2018-07-29T14:39:15.692Z,99877.98
2018-07-29T14:41:42.777Z,99874.34
2018-07-29T14:44:09.958Z,99876.66
2018-07-29T14:46:37.856Z,99870.95
2018-07-29T14:49:05.240Z,99868.65
2018-07-29T14:51:32.262Z,99876.67
2018-07-29T14:53:59.284Z,99882.80
2018-07-29T14:56:26.340Z,99874.00
2018-07-29T14:58:53.416Z,99881.09
2018-07-29T15:01:20.437Z,99869.19
2018-07-29T15:03:49.523Z,99866.46
2018-07-29T15:06:22.857Z,99864.45
2018-07-29T15:08:50.077Z,99859.16
2018-07-29T15:11:17.095Z,99864.96
2018-07-29T15:13:45.446Z,99858.52
2018-07-29T15:16:12.670Z,99866.62
2018-07-29T15:18:45.908Z,99856.45
2018-07-29T15:21:12.973Z,99861.31
2018-07-29T15:23:41.188Z,99854.96
2018-07-29T15:26:08.299Z,99852.57
2018-07-29T15:28:35.440Z,99847.36
2018-07-29T15:31:02.569Z,99845.67
2018-07-29T15:33:29.593Z,99840.63
2018-07-29T15:35:56.645Z,99838.56
2018-07-29T15:38:24.405Z,99848.52
2018-07-29T15:40:51.424Z,99839.06
2018-07-29T15:43:18.527Z,99831.27
2018-07-29T15:45:45.557Z,99833.56
2018-07-29T15:48:12.711Z,99834.78
2018-07-29T15:50:39.735Z,99821.95
2018-07-29T15:53:06.825Z,99821.61
2018-07-29T15:55:33.907Z,99821.22
2018-07-29T15:58:01.067Z,99823.20
2018-07-29T16:00:33.064Z,99826.77
2018-07-29T16:03:01.184Z,99830.81
2018-07-29T16:05:28.285Z,99833.61
2018-07-29T16:07:55.316Z,99830.09
2018-07-29T16:10:22.333Z,99828.88
2018-07-29T16:12:49.405Z,99827.16
2018-07-29T16:15:16.401Z,99817.07
2018-07-29T16:17:43.465Z,99820.91
2018-07-29T16:20:10.632Z,99819.53
2018-07-29T16:22:38.123Z,99820.69
2018-07-29T16:25:05.508Z,99817.98
2018-07-29T16:27:32.543Z,99829.09
2018-07-29T16:29:59.688Z,99821.31
2018-07-29T16:32:27.010Z,99815.72
2018-07-29T16:34:54.069Z,99821.47
2018-07-29T16:37:21.164Z,99819.25
2018-07-29T16:39:48.247Z,99824.01
2018-07-29T16:42:15.345Z,99821.36
2018-07-29T16:44:42.433Z,99824.11
2018-07-29T16:47:09.485Z,99819.83
2018-07-29T16:49:36.617Z,99822.48
2018-07-29T16:52:05.979Z,99827.03
2018-07-29T16:54:33.298Z,99830.38
2018-07-29T16:57:00.404Z,99827.44
2018-07-29T16:59:27.453Z,99824.67
2018-07-29T17:01:54.525Z,99826.63
2018-07-29T17:04:21.573Z,99823.14
2018-07-29T17:06:48.645Z,99829.33
2018-07-29T17:09:15.671Z,99822.94
2018-07-29T17:11:42.684Z,99821.19
2018-07-29T17:14:09.703Z,99820.41
2018-07-29T17:16:36.720Z,99824.98
2018-07-29T17:19:04.100Z,99815.89
2018-07-29T17:21:31.183Z,99820.98
2018-07-29T17:23:58.296Z,99822.16
2018-07-29T17:26:25.471Z,99820.23
2018-07-29T17:28:53.404Z,99820.91
2018-07-29T17:31:20.735Z,99826.13
2018-07-29T17:33:48.380Z,99823.31
2018-07-29T17:36:15.610Z,99829.09
2018-07-29T17:38:42.784Z,99832.91
2018-07-29T17:41:10.096Z,99826.30
2018-07-29T17:43:37.410Z,99824.16
2018-07-29T17:46:04.507Z,99828.09
2018-07-29T17:48:31.823Z,99834.64
2018-07-29T17:50:58.919Z,99836.19
2018-07-29T17:53:26.324Z,99837.70
2018-07-29T17:55:53.459Z,99825.92
2018-07-29T17:58:20.624Z,99823.97
2018-07-29T18:00:47.859Z,99827.45
2018-07-29T18:03:15.152Z,99824.85
2018-07-29T18:05:42.349Z,99822.33
2018-07-29T18:08:09.771Z,99825.15
2018-07-29T18:10:36.946Z,99826.27
2018-07-29T18:13:04.958Z,99832.48
2018-07-29T18:15:32.060Z,99842.66
2018-07-29T18:17:59.262Z,99842.37
2018-07-29T18:20:26.415Z,99840.55
2018-07-29T18:22:53.676Z,99852.62
2018-07-29T18:25:20.743Z,99852.58
2018-07-29T18:27:48.007Z,99852.64
2018-07-29T18:30:15.109Z,99855.45
2018-07-29T18:32:42.539Z,99856.60
2018-07-29T18:35:09.831Z,99857.81
2018-07-29T18:37:36.874Z,99863.58
2018-07-29T18:40:05.976Z,99864.47
2018-07-29T18:42:36.102Z,99862.19
2018-07-29T18:45:03.480Z,99868.95
2018-07-29T18:47:30.789Z,99872.19
2018-07-29T18:49:59.983Z,99878.77
2018-07-29T18:52:30.220Z,99875.39
2018-07-29T18:54:57.486Z,99871.46
2018-07-29T18:57:25.320Z,99878.50
2018-07-29T18:59:52.395Z,99876.11
2018-07-29T19:02:19.589Z,99878.23
2018-07-29T19:04:46.701Z,99879.51
2018-07-29T19:07:14.077Z,99884.83
2018-07-29T19:09:41.223Z,99885.59
2018-07-29T19:12:09.320Z,99886.36
2018-07-29T19:14:36.591Z,99893.69
2018-07-29T19:17:03.788Z,99886.86
2018-07-29T19:19:30.855Z,99899.12
2018-07-29T19:21:58.051Z,99904.59
2018-07-29T19:24:25.286Z,99906.05
2018-07-29T19:26:52.432Z,99914.12
2018-07-29T19:29:19.623Z,99918.38
2018-07-29T19:31:46.899Z,99920.52
2018-07-29T19:34:13.991Z,99925.45
2018-07-29T19:36:41.155Z,99933.62
2018-07-29T19:39:09.663Z,99930.09
2018-07-29T19:41:36.701Z,99936.40
2018-07-29T19:44:03.851Z,99940.14
2018-07-29T19:46:31.091Z,99945.69
2018-07-29T19:48:58.297Z,99945.05
2018-07-29T19:51:25.515Z,99942.69
2018-07-29T19:53:52.823Z,99950.41
2018-07-29T19:56:20.299Z,99950.58
2018-07-29T19:58:47.473Z,99953.11
2018-07-29T20:01:14.642Z,99952.46
2018-07-29T20:03:41.703Z,99956.36
2018-07-29T20:06:08.839Z,99967.16
2018-07-29T20:08:36.960Z,99967.31
2018-07-29T20:11:04.238Z,99967.67
2018-07-29T20:13:31.248Z,99971.73
2018-07-29T20:16:00.365Z,99970.61
2018-07-29T20:18:28.440Z,99976.41
2018-07-29T20:20:55.655Z,99977.38
2018-07-29T20:23:22.840Z,99980.05
2018-07-29T20:25:50.023Z,99977.05
2018-07-29T20:28:17.892Z,99980.61
2018-07-29T20:30:45.115Z,99983.78
2018-07-29T20:33:13.865Z,99986.73
2018-07-29T20:35:41.028Z,99982.83
2018-07-29T20:38:08.911Z,99973.94
2018-07-29T20:40:36.941Z,99981.55
2018-07-29T20:43:08.896Z,99981.91
2018-07-29T20:45:38.833Z,99976.39
2018-07-29T20:48:05.975Z,99971.13
2018-07-29T20:50:33.989Z,99979.70
2018-07-29T20:53:01.987Z,99981.42
2018-07-29T20:55:29.921Z,99981.70
2018-07-29T20:57:57.055Z,99984.63
2018-07-29T21:00:24.927Z,99984.68
2018-07-29T21:02:54.001Z,99989.45
2018-07-29T21:05:21.886Z,99988.38
2018-07-29T21:07:50.877Z,99987.70
2018-07-29T21:10:18.012Z,99986.13
2018-07-29T21:12:45.685Z,99989.08
2018-07-29T21:15:16.003Z,99987.18
2018-07-29T21:17:43.143Z,99992.89
2018-07-29T21:20:10.359Z,99989.64
2018-07-29T21:22:39.441Z,99994.73
2018-07-29T21:25:07.407Z,99993.41
2018-07-29T21:27:37.439Z,99999.78
2018-07-29T21:30:06.448Z,99999.08
2018-07-29T21:32:34.424Z,99998.81
2018-07-29T21:35:01.584Z,99998.84
2018-07-29T21:37:35.511Z,100004.45
2018-07-29T21:40:04.421Z,100000.02
2018-07-29T21:42:34.553Z,100006.56
2018-07-29T21:45:04.688Z,100002.95
2018-07-29T21:47:31.829Z,100005.74
2018-07-29T21:49:59.809Z,100013.98
2018-07-29T21:52:27.939Z,100014.05
2018-07-29T21:54:55.921Z,100012.84
2018-07-29T21:57:24.008Z,100023.25
2018-07-29T21:59:55.041Z,100018.41
2018-07-29T22:02:30.024Z,100019.70
2018-07-29T22:04:57.139Z,100019.14
2018-07-29T22:07:24.327Z,100025.59
2018-07-29T22:09:52.504Z,100025.16
2018-07-29T22:12:20.501Z,100020.89
2018-07-29T22:14:47.627Z,100026.86
2018-07-29T22:17:16.439Z,100024.28
2018-07-29T22:19:50.008Z,100024.66
2018-07-29T22:22:17.202Z,100020.83
2018-07-29T22:24:50.122Z,100020.23
2018-07-29T22:27:18.009Z,100029.21
2018-07-29T22:30:04.765Z,100030.16
2018-07-29T22:32:31.863Z,100026.10
2018-07-29T22:35:00.000Z,100025.52
2018-07-29T22:37:27.932Z,100025.61
2018-07-29T22:39:55.927Z,100027.95
2018-07-29T22:42:23.103Z,100031.03
2018-07-29T22:44:50.980Z,100029.14
2018-07-29T22:47:18.178Z,100025.41
2018-07-29T22:49:45.314Z,100017.59
2018-07-29T22:52:14.085Z,100025.55
2018-07-29T22:54:41.249Z,100017.16
2018-07-29T22:57:09.121Z,100019.95
2018-07-29T22:59:36.267Z,100018.86
2018-07-29T23:02:05.845Z,100017.14
2018-07-29T23:04:32.993Z,100012.44
2018-07-29T23:07:00.020Z,100022.02
2018-07-29T23:09:29.959Z,100020.73
2018-07-29T23:12:00.990Z,100012.52
2018-07-29T23:14:28.980Z,100017.89
2018-07-29T23:16:57.878Z,100018.91
2018-07-29T23:19:25.904Z,100014.66
2018-07-29T23:21:56.000Z,100023.27
2018-07-29T23:24:23.220Z,100024.40
2018-07-29T23:26:50.318Z,100027.29
2018-07-29T23:29:17.400Z,100029.98
2018-07-29T23:31:44.581Z,100028.02
2018-07-29T23:34:13.466Z,100026.48
2018-07-29T23:36:40.603Z,100029.09
2018-07-29T23:39:08.411Z,100037.13
2018-07-29T23:41:37.411Z,100029.20
2018-07-29T23:44:06.487Z,100029.55
2018-07-29T23:46:38.471Z,100032.25
2018-07-29T23:49:06.484Z,100028.53
2018-07-29T23:51:39.767Z,100029.02
2018-07-29T23:54:09.899Z,100034.06
2018-07-29T23:56:37.989Z,100028.53
2018-07-29T23:59:05.138Z,100028.12
